MDT,Max TemperatureF,Mean TemperatureF,Min TemperatureF,Max Dew PointF,MeanDew PointF,Min DewpointF,Max Humidity, Mean Humidity, Min Humidity, Max Sea Level PressureIn, Mean Sea Level PressureIn, Min Sea Level PressureIn, Max VisibilityMiles, Mean VisibilityMiles, Min VisibilityMiles, Max Wind SpeedMPH, Mean Wind SpeedMPH, Max Gust SpeedMPH,PrecipitationIn, CloudCover, Events, WindDirDegrees
2012-9-1,95,78,61,42,38,35,39,26,13,30.07,29.88,29.81,10,10,10,13,5,17,0.00,0,,59
2012-9-2,99,80,61,43,40,37,46,30,13,29.91,29.84,29.75,10,10,10,12,4,17,0.00,0,,148
2012-9-3,97,82,66,57,49,42,54,36,18,30.03,29.86,29.76,10,10,4,23,7,32,0.00,1,Thunderstorm,267
2012-9-4,92,79,66,59,55,49,73,48,23,30.10,29.87,29.76,10,10,10,18,9,28,0.00,1,,248
2012-9-5,95,82,69,61,56,49,73,48,22,29.88,29.80,29.70,10,10,10,20,8,26,0.00,0,,252
2012-9-6,95,82,69,60,57,54,66,46,26,30.12,29.85,29.73,10,10,10,18,7,25,0.00,0,Thunderstorm,247
2012-9-7,93,79,65,62,58,53,81,55,28,30.18,29.88,29.74,10,10,9,26,10,36,T,1,Thunderstorm,234
2012-9-8,68,63,58,63,58,54,100,84,68,30.35,30.18,29.95,10,8,2,23,14,29,0.29,8,Rain,75
2012-9-9,80,69,58,57,53,49,87,60,33,30.24,30.08,29.99,10,10,10,17,9,24,0.00,2,,81
2012-9-10,89,72,55,56,52,47,93,59,24,30.03,29.95,29.84,10,10,10,16,6,20,0.00,0,,123
2012-9-11,85,76,66,58,54,50,68,50,31,30.02,29.88,29.80,10,10,9,28,8,37,T,3,,247
2012-9-12,84,73,61,61,57,52,93,64,34,30.03,29.91,29.81,10,10,10,15,8,21,0.09,1,Rain,248
2012-9-13,74,68,61,57,50,46,78,61,44,30.26,30.07,29.91,10,10,8,35,21,46,0.00,3,,49
2012-9-14,74,63,52,49,44,40,83,56,29,30.24,30.20,30.12,10,10,10,22,12,28,0.00,5,,87
2012-9-15,79,61,43,47,39,30,93,56,18,30.23,30.14,30.04,10,10,10,10,4,15,0.00,0,,217
2012-9-16,91,69,47,44,33,23,61,36,10,30.07,29.97,29.86,10,10,10,21,9,26,0.00,0,,244
2012-9-17,90,72,54,35,30,25,43,26,9,30.11,29.87,29.78,10,10,10,22,11,30,0.00,0,,260
2012-9-18,86,72,57,40,37,32,43,29,15,30.05,29.96,29.84,10,10,10,18,7,24,0.00,0,Rain,79
2012-9-19,90,71,51,42,34,28,54,33,11,30.11,29.99,29.91,10,10,10,10,4,17,0.00,0,,249
2012-9-20,92,71,50,35,30,23,45,27,9,30.19,29.94,29.85,10,10,10,14,5,21,0.00,0,Rain,257
2012-9-21,94,74,54,35,29,25,40,24,8,29.96,29.87,29.80,10,10,10,15,4,23,0.00,0,,71
2012-9-22,93,73,52,32,28,26,38,24,10,30.16,29.94,29.87,10,10,10,15,5,18,0.00,0,,98
2012-9-23,91,74,57,32,28,24,33,20,10,30.08,29.99,29.92,10,10,10,12,7,17,0.00,0,,71
2012-9-24,91,70,51,33,27,22,35,21,10,30.18,29.91,29.81,10,10,10,15,5,18,0.00,0,,266
2012-9-25,88,71,53,40,36,33,50,33,16,30.04,29.83,29.75,10,10,10,18,5,25,0.00,2,,253
2012-9-26,88,71,53,58,44,36,68,44,19,30.08,29.86,29.77,10,10,4,26,4,32,0.05,2,Rain-Thunderstorm,187
2012-9-27,83,70,56,57,51,46,93,61,28,29.95,29.89,29.85,10,10,10,9,3,14,0.00,1,,63
2012-9-28,72,66,59,61,57,49,97,72,47,30.01,29.93,29.84,10,9,3,13,6,16,0.31,6,Rain,39
2012-9-29,79,67,55,58,55,49,100,68,35,30.19,30.00,29.91,10,9,2,10,4,16,0.01,3,,222
2012-9-30,86,70,53,55,47,35,93,55,17,29.98,29.90,29.80,10,10,10,14,5,22,0.00,0,,313